Orbital elements of COSMOS 2251 DEB
| Launched | 15 June 1993 |
| Flight ended | – |
| Launch site | Plesetsk Missile and Space Complex, Russia |
| Owner | Commonwealth of Independent States (former USSR) |
| NORAD ID | 33811 |
| Date fetched |
Epoch osculation |
Inc. [°] |
Ecc. | RA asc node [hr] |
Arg Peri. [°] |
Mean anom [°] |
Mean motion [rev/day] |
Abs. mag |
| Date fetched |
Epoch osculation |
Inc. [°] |
Ecc. | RA asc node [hr] |
Arg Peri. [°] |
Mean anom [°] |
Mean motion [rev/day] |
Abs. mag |
| 2026 May 03 17:57 | 2026 Apr 30 15:55:52 | 73.8397 | 0.00255 | 0.8746 | 78.0799 | 304.7380 | 15.11644 | – |
| 2026 May 02 17:57 | 2026 Apr 30 15:55:52 | 73.8397 | 0.00255 | 0.8746 | 78.0799 | 304.7380 | 15.11644 | – |
| 2026 May 01 17:56 | 2026 Apr 30 15:55:52 | 73.8397 | 0.00255 | 0.8746 | 78.0799 | 304.7380 | 15.11644 | – |
| 2026 Apr 30 17:56 | 2026 Apr 30 15:55:52 | 73.8397 | 0.00255 | 0.8746 | 78.0799 | 304.7380 | 15.11644 | – |
| 2026 Apr 29 17:57 | 2026 Apr 24 11:02:00 | 73.8377 | 0.00256 | 1.7407 | 92.8830 | 304.7380 | 15.11644 | – |
| 2026 Apr 28 17:56 | 2026 Apr 24 11:02:00 | 73.8377 | 0.00256 | 1.7407 | 92.8830 | 304.7380 | 15.11644 | – |
| 2026 Apr 27 17:58 | 2026 Apr 24 11:02:00 | 73.8377 | 0.00256 | 1.7407 | 92.8830 | 304.7380 | 15.11644 | – |
| 2026 Apr 26 17:58 | 2026 Apr 24 11:02:00 | 73.8377 | 0.00256 | 1.7407 | 92.8830 | 304.7380 | 15.11644 | – |
| 2026 Apr 25 17:58 | 2026 Apr 24 11:02:00 | 73.8377 | 0.00256 | 1.7407 | 92.8830 | 304.7380 | 15.11644 | – |
| 2026 Apr 24 17:59 | 2026 Apr 24 11:02:00 | 73.8377 | 0.00256 | 1.7407 | 92.8830 | 304.7380 | 15.11644 | – |
| 2026 Apr 23 17:57 | 2026 Apr 19 11:53:36 | 73.8370 | 0.00259 | 2.4336 | 104.5842 | 304.7380 | 15.11644 | – |
| 2026 Apr 22 17:57 | 2026 Apr 19 11:53:36 | 73.8370 | 0.00259 | 2.4336 | 104.5842 | 304.7380 | 15.11644 | – |
| 2026 Apr 21 17:57 | 2026 Apr 19 11:53:36 | 73.8370 | 0.00259 | 2.4336 | 104.5842 | 304.7380 | 15.11644 | – |
| 2026 Apr 20 17:57 | 2026 Apr 19 11:53:36 | 73.8370 | 0.00259 | 2.4336 | 104.5842 | 304.7380 | 15.11644 | – |
| 2026 Apr 19 17:58 | 2026 Apr 19 11:53:36 | 73.8370 | 0.00259 | 2.4336 | 104.5842 | 304.7380 | 15.11644 | – |
| 2026 Apr 18 17:56 | 2026 Apr 13 06:43:23 | 73.8342 | 0.00264 | 3.3010 | 118.7873 | 304.7380 | 15.11644 | – |
| 2026 Apr 16 17:57 | 2026 Apr 13 06:43:23 | 73.8342 | 0.00264 | 3.3010 | 118.7873 | 304.7380 | 15.11644 | – |
| 2026 Apr 14 17:57 | 2026 Apr 13 06:43:23 | 73.8342 | 0.00264 | 3.3010 | 118.7873 | 304.7380 | 15.11644 | – |
| 2026 Apr 13 17:57 | 2026 Apr 13 06:43:23 | 73.8342 | 0.00264 | 3.3010 | 118.7873 | 304.7380 | 15.11644 | – |
| 2026 Apr 12 17:57 | 2026 Apr 08 15:35:36 | 73.8341 | 0.00268 | 3.9472 | 128.9560 | 304.7380 | 15.11644 | – |
| 2026 Apr 11 17:57 | 2026 Apr 08 15:35:36 | 73.8341 | 0.00268 | 3.9472 | 128.9560 | 304.7380 | 15.11644 | – |
| 2026 Apr 10 17:58 | 2026 Apr 08 15:35:36 | 73.8341 | 0.00268 | 3.9472 | 128.9560 | 304.7380 | 15.11644 | – |
| 2026 Apr 09 18:01 | 2026 Apr 08 15:35:36 | 73.8341 | 0.00268 | 3.9472 | 128.9560 | 304.7380 | 15.11644 | – |
| 2026 Apr 08 17:57 | 2026 Apr 08 15:35:36 | 73.8341 | 0.00268 | 3.9472 | 128.9560 | 304.7380 | 15.11644 | – |
| 2026 Apr 07 17:57 | 2026 Apr 02 08:18:16 | 73.8328 | 0.00268 | 4.8265 | 142.9364 | 304.7380 | 15.11644 | – |
| 2026 Apr 06 17:57 | 2026 Apr 02 08:18:16 | 73.8328 | 0.00268 | 4.8265 | 142.9364 | 304.7380 | 15.11644 | – |